Time;durP1;ratioP1;P1;durP2;ratioP2;P2;SDS_P1;SDS_P2;PMS_P1;PMS_P2;Temp;Humidity;BMP_temperature;BMP_pressure;BME280_temperature;BME280_humidity;BME280_pressure;Samples;Min_cycle;Max_cycle;Signal;HPM_P1;HPM_P2
2023/07/14 00:01:22;;;;;;;10.27;3.45;;;17.20;99.90;;;;;;4216478;28;20040;-85
2023/07/14 00:03:22;;;;;;;7.97;3.30;;;17.20;99.90;;;;;;4215733;28;20492;-84
2023/07/14 00:05:37;;;;;;;8.20;3.08;;;17.20;99.90;;;;;;4216899;28;20174;-84
2023/07/14 00:07:37;;;;;;;7.60;3.00;;;17.10;99.90;;;;;;4217233;28;20555;-84
2023/07/14 00:09:42;;;;;;;9.57;3.08;;;17.00;99.90;;;;;;4215919;28;20114;-85
2023/07/14 00:11:42;;;;;;;10.82;2.90;;;17.00;99.90;;;;;;4215186;28;20044;-84
2023/07/14 00:13:44;;;;;;;8.02;2.72;;;17.00;99.90;;;;;;4215327;28;20044;-84
2023/07/14 00:15:44;;;;;;;7.22;2.60;;;16.90;99.90;;;;;;4214929;28;20076;-84
2023/07/14 00:17:46;;;;;;;11.30;2.83;;;16.90;99.90;;;;;;4215343;28;20055;-84
2023/07/14 00:19:46;;;;;;;9.05;3.00;;;16.90;99.90;;;;;;4215046;28;20040;-84
2023/07/14 00:21:47;;;;;;;8.80;3.10;;;16.90;99.90;;;;;;4215317;28;20082;-84
2023/07/14 00:23:49;;;;;;;5.90;3.45;;;16.90;99.90;;;;;;4215015;28;20051;-84
2023/07/14 00:25:50;;;;;;;8.55;3.85;;;16.90;99.90;;;;;;4215078;28;20124;-84
2023/07/14 00:27:54;;;;;;;4.72;2.45;;;16.80;99.90;;;;;;4213503;28;20043;-85
2023/07/14 00:29:57;;;;;;;6.07;2.83;;;16.80;99.90;;;;;;4215871;28;20123;-85
2023/07/14 00:31:57;;;;;;;8.10;3.45;;;16.50;99.90;;;;;;4216161;28;20040;-84
2023/07/14 00:33:58;;;;;;;7.40;3.30;;;16.80;99.90;;;;;;4213186;28;20051;-84
2023/07/14 00:35:59;;;;;;;10.88;3.72;;;16.70;99.90;;;;;;4215283;28;20051;-84
2023/07/14 00:38:00;;;;;;;5.55;3.83;;;16.70;99.90;;;;;;4214824;28;20055;-84
2023/07/14 00:40:00;;;;;;;5.63;3.85;;;16.60;99.90;;;;;;4215396;28;20043;-84
2023/07/14 00:42:03;;;;;;;8.65;4.13;;;16.50;99.90;;;;;;4214719;28;20047;-84
2023/07/14 00:44:04;;;;;;;8.70;3.95;;;16.50;99.90;;;;;;4215275;28;20054;-84
2023/07/14 00:46:05;;;;;;;8.02;3.95;;;16.40;99.90;;;;;;4215475;28;20441;-84
2023/07/14 00:48:09;;;;;;;11.23;3.90;;;16.40;99.90;;;;;;4214606;28;20511;-84
2023/07/14 00:50:25;;;;;;;9.45;4.20;;;16.30;99.90;;;;;;4215244;28;20028;-84
2023/07/14 00:52:35;;;;;;;10.80;4.28;;;16.20;99.90;;;;;;4215351;28;20051;-84
2023/07/14 00:54:40;;;;;;;9.57;3.85;;;16.20;99.90;;;;;;4213204;28;20142;-84
2023/07/14 00:56:47;;;;;;;8.77;4.53;;;16.20;99.90;;;;;;4215188;28;20129;-84
2023/07/14 00:58:49;;;;;;;12.93;3.92;;;16.10;99.90;;;;;;4214875;28;20055;-84
2023/07/14 01:01:08;;;;;;;10.25;3.95;;;16.10;99.90;;;;;;4215269;28;20479;-84
2023/07/14 01:03:14;;;;;;;8.00;3.63;;;16.10;99.90;;;;;;4217389;28;20101;-84
2023/07/14 01:05:15;;;;;;;10.65;3.92;;;16.10;99.90;;;;;;4215406;28;20137;-84
2023/07/14 01:07:21;;;;;;;7.53;4.07;;;16.10;99.90;;;;;;4216889;28;20078;-84
2023/07/14 01:09:21;;;;;;;10.52;4.07;;;16.10;99.90;;;;;;4216946;28;20044;-84
2023/07/14 01:11:29;;;;;;;10.00;4.65;;;16.00;99.90;;;;;;4219371;28;20051;-85
2023/07/14 01:13:31;;;;;;;8.45;4.32;;;16.00;99.90;;;;;;4220207;28;20902;-84
2023/07/14 01:15:33;;;;;;;8.70;5.40;;;16.00;99.90;;;;;;4219399;28;20059;-85
2023/07/14 01:17:36;;;;;;;11.20;4.43;;;16.00;99.90;;;;;;4220927;28;20373;-84
2023/07/14 01:19:52;;;;;;;9.10;4.47;;;16.00;99.90;;;;;;4219486;28;20558;-85
2023/07/14 01:22:04;;;;;;;8.30;4.00;;;16.00;99.90;;;;;;4219266;28;20484;-85
2023/07/14 01:24:13;;;;;;;7.30;4.45;;;15.90;99.90;;;;;;4218764;28;20043;-85
2023/07/14 01:26:17;;;;;;;10.93;4.45;;;15.90;99.90;;;;;;4220235;28;20043;-85
2023/07/14 01:28:19;;;;;;;8.30;4.95;;;15.90;99.90;;;;;;4219725;28;20047;-84
2023/07/14 01:30:20;;;;;;;7.00;4.28;;;15.90;99.90;;;;;;4219804;28;20051;-84
2023/07/14 01:32:23;;;;;;;9.38;4.90;;;15.90;99.90;;;;;;4218695;28;20047;-84
2023/07/14 01:34:24;;;;;;;10.27;5.18;;;15.90;99.90;;;;;;4220139;28;20048;-85
2023/07/14 01:36:25;;;;;;;8.93;4.30;;;15.90;99.90;;;;;;4219758;28;20041;-85
2023/07/14 01:38:26;;;;;;;7.57;4.40;;;15.90;99.90;;;;;;4219453;28;20044;-84
2023/07/14 01:40:28;;;;;;;8.70;4.40;;;15.90;99.90;;;;;;4219578;28;20564;-85
2023/07/14 01:42:29;;;;;;;7.72;4.05;;;15.90;99.90;;;;;;4219305;28;20051;-85
2023/07/14 01:44:30;;;;;;;11.85;5.20;;;15.90;99.90;;;;;;4219624;28;20044;-85
2023/07/14 01:46:31;;;;;;;6.75;4.28;;;15.90;99.90;;;;;;4218052;28;20415;-84
2023/07/14 01:48:50;;;;;;;9.98;4.90;;;15.90;99.90;;;;;;4218163;28;20040;-85
2023/07/14 01:50:59;;;;;;;8.98;4.50;;;15.90;99.90;;;;;;4218525;28;20129;-85
2023/07/14 01:53:09;;;;;;;14.25;4.70;;;15.90;99.90;;;;;;4218064;28;20048;-86
2023/07/14 01:55:15;;;;;;;6.65;4.50;;;15.80;99.90;;;;;;4218129;28;20502;-85
2023/07/14 01:57:20;;;;;;;13.20;5.75;;;15.80;99.90;;;;;;4216885;28;20076;-85
2023/07/14 01:59:29;;;;;;;13.27;5.18;;;15.50;99.90;;;;;;4217990;28;20109;-85
2023/07/14 02:01:32;;;;;;;9.63;4.30;;;15.80;99.90;;;;;;4218038;28;20032;-85
2023/07/14 02:03:47;;;;;;;8.25;4.25;;;15.80;99.90;;;;;;4214812;28;20283;-85
2023/07/14 02:05:48;;;;;;;10.27;4.80;;;15.80;99.90;;;;;;4216333;28;20089;-85
2023/07/14 02:07:48;;;;;;;10.70;4.68;;;15.80;99.90;;;;;;4215973;28;20035;-85
2023/07/14 02:09:49;;;;;;;13.90;5.22;;;15.80;99.90;;;;;;4216020;28;20075;-85
2023/07/14 02:11:58;;;;;;;11.25;4.65;;;15.80;99.90;;;;;;4217942;28;20520;-85
2023/07/14 02:13:59;;;;;;;11.20;4.75;;;15.80;99.90;;;;;;4216761;28;20040;-85
2023/07/14 02:16:00;;;;;;;11.57;5.03;;;15.70;99.90;;;;;;4218338;28;20040;-85
2023/07/14 02:18:02;;;;;;;10.10;4.80;;;15.70;99.90;;;;;;4217501;28;20138;-85
2023/07/14 02:20:06;;;;;;;10.00;4.13;;;15.70;99.90;;;;;;4218213;28;20438;-85
2023/07/14 02:22:07;;;;;;;9.10;4.47;;;15.80;99.90;;;;;;4218153;28;20133;-85
2023/07/14 02:24:16;;;;;;;9.88;4.18;;;15.70;99.90;;;;;;4217890;28;20048;-85
2023/07/14 02:26:31;;;;;;;9.02;5.45;;;15.70;99.90;;;;;;4218178;28;20054;-85
2023/07/14 02:28:32;;;;;;;8.93;5.10;;;15.70;99.90;;;;;;4217162;28;20048;-86
2023/07/14 02:30:33;;;;;;;11.27;5.15;;;15.70;99.90;;;;;;4215523;28;20051;-84
2023/07/14 02:32:40;;;;;;;9.85;5.13;;;15.60;99.90;;;;;;4217029;28;20052;-83
2023/07/14 02:34:46;;;;;;;10.50;4.95;;;15.70;99.90;;;;;;4216826;28;20048;-84
2023/07/14 02:37:00;;;;;;;10.45;5.10;;;15.60;99.90;;;;;;4216881;28;20055;-84
2023/07/14 02:39:02;;;;;;;10.18;6.10;;;15.70;99.90;;;;;;4216771;28;20523;-85
2023/07/14 02:41:19;;;;;;;12.18;5.18;;;15.60;99.90;;;;;;4216778;28;20040;-84
2023/07/14 02:43:22;;;;;;;9.43;5.45;;;15.60;99.90;;;;;;4217301;28;20048;-84
2023/07/14 02:45:25;;;;;;;15.20;6.30;;;15.60;99.90;;;;;;4214423;28;20048;-85
2023/07/14 02:47:27;;;;;;;12.32;5.60;;;15.60;99.90;;;;;;4215695;28;20052;-84
2023/07/14 02:49:29;;;;;;;10.55;5.53;;;15.60;99.90;;;;;;4215284;28;20119;-84
2023/07/14 02:51:29;;;;;;;18.17;5.53;;;15.60;99.90;;;;;;4215843;28;20086;-84
2023/07/14 02:53:30;;;;;;;8.10;5.40;;;15.60;99.90;;;;;;4215999;28;20044;-84
2023/07/14 02:55:30;;;;;;;10.68;5.70;;;15.60;99.90;;;;;;4216542;28;20050;-85
2023/07/14 02:57:34;;;;;;;13.77;5.75;;;15.60;99.90;;;;;;4216534;28;20055;-84
2023/07/14 02:59:34;;;;;;;10.18;5.03;;;15.60;99.90;;;;;;4217806;28;20504;-84
2023/07/14 03:01:36;;;;;;;11.00;6.18;;;15.60;99.90;;;;;;4219279;28;20040;-84
2023/07/14 03:03:38;;;;;;;12.45;6.38;;;15.60;99.90;;;;;;4221213;28;20064;-85
2023/07/14 03:05:38;;;;;;;13.57;5.97;;;15.50;99.90;;;;;;4239744;28;20046;-84
2023/07/14 03:07:39;;;;;;;9.85;5.22;;;15.60;99.90;;;;;;4221897;28;20036;-83
2023/07/14 03:09:40;;;;;;;10.25;5.45;;;15.70;99.90;;;;;;4220092;28;20120;-84
2023/07/14 03:11:41;;;;;;;10.05;5.80;;;15.50;99.90;;;;;;4217492;28;20488;-85
2023/07/14 03:13:43;;;;;;;11.57;5.35;;;15.60;99.90;;;;;;4216518;28;20065;-84
2023/07/14 03:15:44;;;;;;;8.55;5.53;;;15.60;99.90;;;;;;4216018;28;20075;-84
2023/07/14 03:17:44;;;;;;;17.23;6.05;;;15.60;99.90;;;;;;4218081;28;20528;-84
2023/07/14 03:19:45;;;;;;;9.85;5.07;;;15.60;99.90;;;;;;4216296;28;20043;-84
2023/07/14 03:21:45;;;;;;;8.85;5.05;;;15.50;99.90;;;;;;4233496;28;20039;-84
2023/07/14 03:23:46;;;;;;;9.98;5.03;;;15.50;99.90;;;;;;4217596;28;20105;-84
2023/07/14 03:25:59;;;;;;;10.10;4.60;;;15.50;99.90;;;;;;4216533;28;20480;-84
2023/07/14 03:28:03;;;;;;;11.60;5.30;;;15.50;99.90;;;;;;4216071;28;20089;-83
2023/07/14 03:30:04;;;;;;;8.43;4.70;;;15.60;99.90;;;;;;4232047;28;20043;-84
2023/07/14 03:32:05;;;;;;;12.25;5.05;;;15.50;99.90;;;;;;4231299;28;20051;-84
2023/07/14 03:34:07;;;;;;;11.98;4.80;;;15.50;99.90;;;;;;4215580;28;20036;-84
2023/07/14 03:36:11;;;;;;;12.02;5.30;;;15.60;99.90;;;;;;4216333;28;20434;-85
2023/07/14 03:38:13;;;;;;;10.05;4.43;;;15.50;99.90;;;;;;4216290;28;20063;-84
2023/07/14 03:40:15;;;;;;;11.80;4.70;;;15.50;99.90;;;;;;4216023;28;20050;-84
2023/07/14 03:42:16;;;;;;;11.52;4.78;;;15.50;99.90;;;;;;4214652;28;20428;-84
2023/07/14 03:44:17;;;;;;;8.70;4.30;;;15.50;99.90;;;;;;4215462;28;20040;-84
2023/07/14 03:46:17;;;;;;;8.38;4.65;;;15.50;99.90;;;;;;4215361;28;20097;-85
2023/07/14 03:48:18;;;;;;;12.32;4.70;;;15.50;99.90;;;;;;4214746;28;20092;-84
2023/07/14 03:50:19;;;;;;;12.45;4.97;;;15.50;99.90;;;;;;4214554;28;20032;-85
2023/07/14 03:52:19;;;;;;;9.75;4.65;;;15.50;99.90;;;;;;4214601;28;20056;-84
2023/07/14 03:54:21;;;;;;;10.52;5.25;;;15.50;99.90;;;;;;4214173;28;20395;-84
2023/07/14 03:56:22;;;;;;;8.13;4.95;;;15.50;99.90;;;;;;4214279;28;20059;-84
2023/07/14 03:58:22;;;;;;;12.45;4.72;;;15.50;99.90;;;;;;4213950;28;20044;-84
2023/07/14 04:00:23;;;;;;;10.73;4.40;;;15.50;99.90;;;;;;4214455;28;20519;-85
2023/07/14 04:02:24;;;;;;;10.63;4.10;;;15.50;99.90;;;;;;4214422;28;20036;-84
2023/07/14 04:04:24;;;;;;;8.15;4.68;;;15.50;99.90;;;;;;4215528;28;20399;-84
2023/07/14 04:06:25;;;;;;;11.35;4.65;;;15.50;99.90;;;;;;4215242;28;20040;-84
2023/07/14 04:08:26;;;;;;;7.45;4.70;;;15.50;99.90;;;;;;4215989;28;20092;-84
2023/07/14 04:10:27;;;;;;;11.48;4.45;;;15.50;99.90;;;;;;4215412;28;20442;-84
2023/07/14 04:12:28;;;;;;;10.20;3.80;;;15.50;99.90;;;;;;4215924;28;20046;-84
2023/07/14 04:14:28;;;;;;;13.43;3.90;;;15.50;99.90;;;;;;4217151;28;20044;-84
2023/07/14 04:16:29;;;;;;;12.68;4.95;;;15.60;99.90;;;;;;4216121;28;20093;-85
2023/07/14 04:18:30;;;;;;;11.30;4.07;;;15.50;99.90;;;;;;4216582;28;20052;-85
2023/07/14 04:20:31;;;;;;;7.22;3.83;;;15.60;99.90;;;;;;4216993;28;20552;-84
2023/07/14 04:22:32;;;;;;;9.75;3.22;;;15.60;99.90;;;;;;4216648;28;20044;-85
2023/07/14 04:24:33;;;;;;;12.45;3.85;;;15.60;99.90;;;;;;4197785;28;20105;-84
2023/07/14 04:26:34;;;;;;;10.15;3.13;;;15.60;99.90;;;;;;4216933;28;20510;-85
2023/07/14 04:28:35;;;;;;;5.47;3.30;;;15.60;99.90;;;;;;4215315;28;20101;-85
2023/07/14 04:30:42;;;;;;;6.82;3.30;;;15.60;99.90;;;;;;4216363;28;20036;-84
2023/07/14 04:32:43;;;;;;;11.27;3.90;;;15.60;99.90;;;;;;4216094;28;20047;-84
2023/07/14 04:34:45;;;;;;;8.10;3.40;;;15.60;99.90;;;;;;4232597;28;20055;-85
2023/07/14 04:36:47;;;;;;;9.57;3.33;;;15.70;99.90;;;;;;4214964;28;20063;-84
2023/07/14 04:39:06;;;;;;;7.85;3.03;;;15.70;99.90;;;;;;4216474;28;20472;-84
2023/07/14 04:41:08;;;;;;;13.32;3.58;;;15.70;99.90;;;;;;4217210;28;20400;-84
2023/07/14 04:43:08;;;;;;;12.40;2.72;;;15.80;99.90;;;;;;4215669;28;20126;-84
2023/07/14 04:45:11;;;;;;;7.18;3.20;;;15.70;99.90;;;;;;4219126;28;20039;-84
2023/07/14 04:47:11;;;;;;;8.02;2.67;;;15.80;99.90;;;;;;4218519;28;20044;-84
2023/07/14 04:49:14;;;;;;;14.20;2.90;;;15.80;99.90;;;;;;4220865;28;20046;-84
2023/07/14 04:51:15;;;;;;;9.50;2.60;;;15.80;99.90;;;;;;4215739;28;20448;-84
2023/07/14 04:53:17;;;;;;;8.38;2.42;;;15.90;99.90;;;;;;4217442;28;20042;-85
2023/07/14 04:55:17;;;;;;;6.22;3.00;;;15.90;99.90;;;;;;4217827;28;20044;-84
2023/07/14 04:57:19;;;;;;;7.22;2.70;;;16.00;99.90;;;;;;4216416;28;20052;-85
2023/07/14 04:59:20;;;;;;;9.02;2.58;;;16.00;99.90;;;;;;4218254;28;20044;-85
2023/07/14 05:01:21;;;;;;;8.50;2.70;;;16.10;99.90;;;;;;4216139;28;20535;-85
2023/07/14 05:03:23;;;;;;;10.30;2.67;;;16.10;99.90;;;;;;4218843;28;20044;-85
2023/07/14 05:05:25;;;;;;;7.10;2.50;;;16.10;99.90;;;;;;4218171;28;20043;-84
2023/07/14 05:07:25;;;;;;;11.10;3.08;;;16.20;99.90;;;;;;4219055;28;20493;-84
2023/07/14 05:09:27;;;;;;;12.25;3.53;;;16.20;99.90;;;;;;4217906;28;20062;-84
2023/07/14 05:11:28;;;;;;;9.25;2.38;;;16.20;99.90;;;;;;4218575;28;20032;-85
2023/07/14 05:13:28;;;;;;;5.40;2.30;;;16.30;99.90;;;;;;4218116;28;20044;-85
2023/07/14 05:15:29;;;;;;;13.63;3.53;;;16.30;99.90;;;;;;4218713;28;20036;-84
2023/07/14 05:17:30;;;;;;;4.78;2.30;;;16.30;99.90;;;;;;4219414;28;20079;-84
2023/07/14 05:19:31;;;;;;;8.13;3.03;;;16.40;99.90;;;;;;4217475;28;20127;-84
2023/07/14 05:21:32;;;;;;;8.50;2.80;;;16.40;99.90;;;;;;4220254;28;20052;-84
2023/07/14 05:23:33;;;;;;;8.35;2.60;;;16.40;99.90;;;;;;4218815;28;20044;-85
2023/07/14 05:25:35;;;;;;;7.82;2.45;;;16.50;99.90;;;;;;4219406;28;20048;-85
2023/07/14 05:27:36;;;;;;;5.78;2.42;;;16.50;99.90;;;;;;4219073;28;20040;-85
2023/07/14 05:29:36;;;;;;;6.60;2.67;;;16.60;99.90;;;;;;4219056;28;20445;-84
2023/07/14 05:31:37;;;;;;;6.38;2.28;;;16.60;99.90;;;;;;4219209;28;20055;-85
2023/07/14 05:33:38;;;;;;;9.38;2.58;;;16.60;99.90;;;;;;4218382;28;20503;-84
2023/07/14 05:35:39;;;;;;;13.30;3.00;;;16.70;99.90;;;;;;4218874;28;20083;-84
2023/07/14 05:37:42;;;;;;;8.23;2.40;;;16.80;99.90;;;;;;4233542;28;20046;-84
2023/07/14 05:39:43;;;;;;;6.78;2.80;;;16.60;99.90;;;;;;4218067;28;20093;-84
2023/07/14 05:41:44;;;;;;;6.53;2.70;;;16.80;99.90;;;;;;4218521;28;20128;-84
2023/07/14 05:43:45;;;;;;;5.93;2.60;;;17.20;99.90;;;;;;4217525;28;20093;-84
2023/07/14 05:45:47;;;;;;;9.20;2.90;;;16.60;99.90;;;;;;4218176;28;20036;-84
2023/07/14 05:47:48;;;;;;;8.75;3.03;;;17.00;99.90;;;;;;4216050;28;20040;-84
2023/07/14 05:49:50;;;;;;;8.70;2.45;;;17.00;99.90;;;;;;4217741;28;20100;-84
2023/07/14 05:51:52;;;;;;;7.85;2.28;;;17.00;99.90;;;;;;4216704;28;20044;-84
2023/07/14 05:53:53;;;;;;;7.72;1.98;;;17.10;99.90;;;;;;4216886;28;20473;-84
2023/07/14 05:55:56;;;;;;;5.78;2.00;;;17.20;99.90;;;;;;4217042;28;20066;-84
2023/07/14 05:57:56;;;;;;;5.40;2.45;;;17.20;99.90;;;;;;4217942;28;20044;-84
2023/07/14 05:59:57;;;;;;;9.70;2.58;;;17.30;99.90;;;;;;4217892;28;20120;-85
2023/07/14 06:01:58;;;;;;;6.80;2.80;;;17.30;99.90;;;;;;4216947;28;20036;-85
2023/07/14 06:04:00;;;;;;;6.22;2.58;;;17.40;99.90;;;;;;4217823;28;20028;-84
2023/07/14 06:06:04;;;;;;;7.93;2.53;;;17.40;99.90;;;;;;4217383;28;20036;-85
2023/07/14 06:08:05;;;;;;;7.05;2.42;;;17.50;99.90;;;;;;4219549;28;20044;-84
2023/07/14 06:10:07;;;;;;;8.48;2.33;;;17.50;99.90;;;;;;4218027;28;20448;-84
2023/07/14 06:12:10;;;;;;;7.40;2.30;;;17.60;99.90;;;;;;4217066;28;20543;-85
2023/07/14 06:14:11;;;;;;;10.85;3.30;;;17.60;99.90;;;;;;4218650;28;20048;-84
2023/07/14 06:16:12;;;;;;;5.40;2.05;;;17.70;99.90;;;;;;4217383;28;20077;-85
2023/07/14 06:18:13;;;;;;;4.95;2.20;;;17.70;99.90;;;;;;4201078;28;20048;-84
2023/07/14 06:20:14;;;;;;;7.82;2.30;;;17.80;99.90;;;;;;4200513;28;20436;-85
2023/07/14 06:22:16;;;;;;;10.15;2.10;;;17.80;99.90;;;;;;4219495;28;20416;-85
2023/07/14 06:24:18;;;;;;;7.30;2.45;;;17.90;99.90;;;;;;4233567;28;20047;-84
2023/07/14 06:26:19;;;;;;;6.97;2.50;;;18.00;99.90;;;;;;4218675;28;20040;-85
2023/07/14 06:28:20;;;;;;;4.45;2.13;;;18.10;99.90;;;;;;4222788;28;20047;-84
2023/07/14 06:30:24;;;;;;;7.28;2.28;;;18.10;99.90;;;;;;4233320;28;20048;-85
2023/07/14 06:32:24;;;;;;;6.25;1.80;;;18.20;99.90;;;;;;4234827;28;20098;-86
2023/07/14 06:34:25;;;;;;;8.38;1.88;;;18.20;99.90;;;;;;4232539;28;20048;-85
2023/07/14 06:36:26;;;;;;;5.00;2.08;;;18.20;99.90;;;;;;4231777;28;20044;-84
2023/07/14 06:38:30;;;;;;;5.68;2.15;;;18.30;99.90;;;;;;4232027;28;20039;-85
2023/07/14 06:40:31;;;;;;;9.95;2.72;;;18.30;99.90;;;;;;4231309;28;20051;-85
2023/07/14 06:42:32;;;;;;;7.70;2.33;;;18.30;99.90;;;;;;4232675;28;20039;-85
2023/07/14 06:44:33;;;;;;;8.57;2.45;;;18.40;99.90;;;;;;4231293;28;20079;-84
2023/07/14 06:46:34;;;;;;;7.13;2.50;;;18.50;99.90;;;;;;4233135;28;20049;-85
2023/07/14 06:48:36;;;;;;;9.95;2.95;;;18.50;99.90;;;;;;4229609;28;20044;-85
2023/07/14 06:50:37;;;;;;;8.15;2.53;;;18.50;99.90;;;;;;4220330;28;20036;-85
2023/07/14 06:52:38;;;;;;;12.82;2.70;;;18.60;99.90;;;;;;4217588;28;20097;-85
2023/07/14 06:54:40;;;;;;;7.93;2.70;;;18.60;99.90;;;;;;4218145;28;20040;-85
2023/07/14 06:56:41;;;;;;;8.68;2.45;;;18.60;99.90;;;;;;4217134;28;20488;-84
2023/07/14 06:58:42;;;;;;;8.30;2.22;;;18.70;99.90;;;;;;4217237;28;20048;-85
2023/07/14 07:00:42;;;;;;;6.45;2.60;;;18.70;99.90;;;;;;4216853;28;20044;-85
2023/07/14 07:02:43;;;;;;;9.85;2.60;;;18.70;99.90;;;;;;4216862;28;20404;-84
2023/07/14 07:04:44;;;;;;;8.82;2.03;;;18.70;99.90;;;;;;4217600;28;20047;-85
2023/07/14 07:06:45;;;;;;;11.57;2.55;;;18.70;99.90;;;;;;4216395;28;20044;-84
2023/07/14 07:08:46;;;;;;;7.18;2.30;;;18.80;99.90;;;;;;4218326;28;20043;-84
2023/07/14 07:10:48;;;;;;;13.43;2.83;;;18.90;99.90;;;;;;4216895;28;20096;-84
2023/07/14 07:12:49;;;;;;;12.20;2.60;;;19.00;99.90;;;;;;4217587;28;20040;-85
2023/07/14 07:14:50;;;;;;;6.65;2.40;;;19.00;99.90;;;;;;4217638;28;20503;-84
2023/07/14 07:16:52;;;;;;;5.60;1.90;;;19.10;99.90;;;;;;4216918;28;20036;-85
2023/07/14 07:18:52;;;;;;;7.05;2.05;;;19.10;99.90;;;;;;4217785;28;20093;-85
2023/07/14 07:20:55;;;;;;;8.98;2.58;;;19.20;99.90;;;;;;4216462;28;20476;-84
2023/07/14 07:22:55;;;;;;;8.50;2.15;;;19.30;99.90;;;;;;4218218;28;20040;-84
2023/07/14 07:24:56;;;;;;;4.63;1.92;;;19.40;99.90;;;;;;4216798;28;20044;-84
2023/07/14 07:26:58;;;;;;;8.00;2.13;;;19.30;99.90;;;;;;4217496;28;20051;-85
2023/07/14 07:28:58;;;;;;;3.85;1.83;;;19.40;99.90;;;;;;4216612;28;20044;-84
2023/07/14 07:31:08;;;;;;;6.93;2.70;;;19.50;99.90;;;;;;4216491;28;20047;-84
2023/07/14 07:33:09;;;;;;;4.82;2.10;;;19.50;99.90;;;;;;4216758;28;20051;-84
2023/07/14 07:35:10;;;;;;;5.30;2.38;;;19.60;99.90;;;;;;4216099;28;20403;-85
2023/07/14 07:37:11;;;;;;;10.13;1.95;;;19.70;99.90;;;;;;4216237;28;20044;-85
2023/07/14 07:39:11;;;;;;;7.03;1.60;;;19.80;99.90;;;;;;4215996;28;20152;-85
2023/07/14 07:41:14;;;;;;;5.70;2.58;;;19.90;99.90;;;;;;4216493;28;20503;-84
2023/07/14 07:43:15;;;;;;;4.55;1.88;;;19.90;99.90;;;;;;4215844;28;20040;-84
2023/07/14 07:45:19;;;;;;;5.25;1.70;;;19.90;99.90;;;;;;4215447;28;20097;-84
2023/07/14 07:47:20;;;;;;;7.78;2.15;;;19.90;99.90;;;;;;4216258;28;20048;-84
2023/07/14 07:49:21;;;;;;;3.47;2.00;;;20.00;99.90;;;;;;4215611;28;20511;-84
2023/07/14 07:51:21;;;;;;;6.95;1.95;;;20.10;99.90;;;;;;4216011;28;20040;-84
2023/07/14 07:53:22;;;;;;;7.38;1.73;;;20.20;99.90;;;;;;4214784;28;20147;-84
2023/07/14 07:55:23;;;;;;;5.22;1.75;;;20.40;99.90;;;;;;4231282;28;20541;-84
2023/07/14 07:57:24;;;;;;;8.02;1.92;;;20.50;99.90;;;;;;4215122;28;20120;-85
2023/07/14 07:59:24;;;;;;;8.63;1.88;;;20.50;99.90;;;;;;4215806;28;20044;-84
2023/07/14 08:01:26;;;;;;;7.57;2.60;;;20.60;99.90;;;;;;4215581;28;20058;-84
2023/07/14 08:03:27;;;;;;;9.43;1.92;;;20.80;99.90;;;;;;4215014;28;20072;-84
2023/07/14 08:05:27;;;;;;;3.25;1.77;;;20.90;99.90;;;;;;4215853;28;20062;-84
2023/07/14 08:07:28;;;;;;;6.43;1.65;;;21.00;99.90;;;;;;4213681;28;20404;-85
2023/07/14 08:09:29;;;;;;;5.05;1.60;;;21.10;99.90;;;;;;4215309;28;20032;-85
2023/07/14 08:11:30;;;;;;;8.23;2.58;;;21.30;99.90;;;;;;4216444;28;20075;-84
2023/07/14 08:13:31;;;;;;;4.40;1.90;;;21.20;99.90;;;;;;4215242;28;20488;-84
2023/07/14 08:15:31;;;;;;;8.18;2.40;;;21.30;99.90;;;;;;4215843;28;20044;-84
2023/07/14 08:17:32;;;;;;;3.85;1.80;;;21.10;99.90;;;;;;4216580;28;20032;-85
2023/07/14 08:19:33;;;;;;;4.35;1.80;;;21.10;99.90;;;;;;4215169;28;20515;-84
2023/07/14 08:21:37;;;;;;;6.55;1.83;;;21.00;99.90;;;;;;4215154;28;20044;-85
2023/07/14 08:23:40;;;;;;;4.15;1.88;;;21.20;99.90;;;;;;4214527;28;20093;-84
2023/07/14 08:25:41;;;;;;;5.25;2.05;;;21.40;99.90;;;;;;4214896;28;20051;-84
2023/07/14 08:27:42;;;;;;;5.88;1.90;;;21.40;99.90;;;;;;4216219;28;20365;-84
2023/07/14 08:29:43;;;;;;;6.43;1.88;;;21.40;99.90;;;;;;4213327;28;20123;-84
2023/07/14 08:31:44;;;;;;;5.43;2.58;;;21.60;99.90;;;;;;4215184;28;20044;-85
2023/07/14 08:33:44;;;;;;;5.97;2.30;;;21.70;99.90;;;;;;4214313;28;20428;-84
2023/07/14 08:35:49;;;;;;;3.80;2.22;;;21.70;99.90;;;;;;4215705;28;20040;-84
2023/07/14 08:37:50;;;;;;;6.03;2.70;;;21.60;99.90;;;;;;4215598;28;20036;-83
2023/07/14 08:39:51;;;;;;;8.68;2.92;;;21.50;99.90;;;;;;4215269;28;20441;-84
2023/07/14 08:41:56;;;;;;;5.35;1.83;;;21.50;99.90;;;;;;4214534;28;20051;-84
2023/07/14 08:44:28;;;;;;;4.05;2.15;;;21.50;99.90;;;;;;4214784;28;20455;-84
2023/07/14 08:46:38;;;;;;;5.28;2.10;;;21.50;99.90;;;;;;4214840;28;20044;-84
2023/07/14 08:48:45;;;;;;;4.30;2.22;;;21.40;99.90;;;;;;4215317;28;20752;-85
2023/07/14 08:50:50;;;;;;;5.85;2.50;;;21.30;99.90;;;;;;4215615;28;20040;-84
2023/07/14 08:52:54;;;;;;;9.10;2.55;;;21.40;99.90;;;;;;4214925;28;20036;-85
2023/07/14 08:55:02;;;;;;;7.13;2.00;;;21.30;99.90;;;;;;4215626;28;20508;-84
2023/07/14 08:57:03;;;;;;;3.83;1.52;;;21.50;99.90;;;;;;4214546;28;20059;-85
2023/07/14 08:59:05;;;;;;;3.47;1.73;;;21.60;99.90;;;;;;4214484;28;20058;-84
2023/07/14 09:01:27;;;;;;;5.80;1.40;;;21.70;99.90;;;;;;4215259;28;20047;-84
2023/07/14 09:03:46;;;;;;;3.42;1.25;;;21.70;99.90;;;;;;4216605;28;20094;-84
2023/07/14 09:06:12;;;;;;;3.72;1.48;;;21.80;99.90;;;;;;4215463;28;20497;-85
2023/07/14 09:08:13;;;;;;;3.92;1.20;;;21.80;99.90;;;;;;4214888;28;20032;-84
2023/07/14 09:10:14;;;;;;;3.92;1.42;;;22.10;99.90;;;;;;4215970;28;20063;-85
2023/07/14 09:12:24;;;;;;;3.80;1.63;;;22.30;99.90;;;;;;4213937;28;20218;-84
2023/07/14 09:14:43;;;;;;;3.13;1.45;;;22.60;99.90;;;;;;4215607;28;20058;-84
2023/07/14 09:17:01;;;;;;;4.95;1.63;;;22.90;99.90;;;;;;4215572;28;20476;-85
2023/07/14 09:19:31;;;;;;;2.20;1.40;;;23.10;99.10;;;;;;4215579;28;20044;-84
2023/07/14 09:21:45;;;;;;;4.90;1.48;;;23.10;98.50;;;;;;4198755;28;20048;-84
2023/07/14 09:24:03;;;;;;;4.22;1.80;;;23.30;99.20;;;;;;4197772;28;20060;-83
2023/07/14 09:26:11;;;;;;;2.30;1.35;;;23.40;98.70;;;;;;4207116;28;20501;-84
2023/07/14 09:28:20;;;;;;;2.00;1.10;;;23.60;99.20;;;;;;4215897;28;20052;-84
2023/07/14 09:30:26;;;;;;;2.92;1.35;;;23.70;98.00;;;;;;4216482;28;20044;-84
2023/07/14 09:32:37;;;;;;;4.57;1.55;;;23.60;98.00;;;;;;4218237;28;20072;-84
2023/07/14 09:34:40;;;;;;;3.70;1.33;;;23.70;97.90;;;;;;4218398;28;20050;-84
2023/07/14 09:36:42;;;;;;;4.63;1.55;;;23.80;98.20;;;;;;4218580;28;20558;-84
2023/07/14 09:38:48;;;;;;;6.53;1.85;;;23.80;97.50;;;;;;4217333;28;20050;-83
2023/07/14 09:40:56;;;;;;;7.57;1.33;;;23.90;96.40;;;;;;4216876;28;20047;-84
2023/07/14 09:42:58;;;;;;;2.20;1.17;;;24.00;96.60;;;;;;4217992;28;20504;-84
2023/07/14 09:45:09;;;;;;;7.22;2.00;;;24.00;96.70;;;;;;4216592;28;20157;-83
2023/07/14 09:47:10;;;;;;;3.30;1.52;;;24.00;96.80;;;;;;4217124;28;20487;-84
2023/07/14 09:49:27;;;;;;;3.05;1.27;;;23.90;96.50;;;;;;4218334;28;20044;-84
2023/07/14 09:51:28;;;;;;;4.95;1.67;;;24.00;96.20;;;;;;4216941;28;20048;-83
2023/07/14 09:53:31;;;;;;;2.45;1.50;;;24.10;96.70;;;;;;4217735;28;20046;-83
2023/07/14 09:55:46;;;;;;;5.45;1.42;;;23.80;95.80;;;;;;4216636;28;20483;-83
2023/07/14 09:57:52;;;;;;;8.35;1.70;;;23.60;94.10;;;;;;4216643;28;20055;-84
2023/07/14 10:00:13;;;;;;;11.32;1.60;;;23.40;96.20;;;;;;4217384;28;20149;-83
2023/07/14 10:02:15;;;;;;;5.32;1.80;;;23.20;96.20;;;;;;4219998;28;20055;-84
2023/07/14 10:04:16;;;;;;;3.97;1.80;;;23.20;96.80;;;;;;4217815;28;20046;-84
2023/07/14 10:06:25;;;;;;;7.53;2.33;;;23.40;97.00;;;;;;4217813;28;20115;-84
2023/07/14 10:08:33;;;;;;;4.93;1.77;;;23.60;96.40;;;;;;4216800;28;20048;-84
2023/07/14 10:10:42;;;;;;;4.57;1.53;;;23.60;96.20;;;;;;4217516;28;20036;-84
2023/07/14 10:12:49;;;;;;;6.38;1.55;;;23.60;95.90;;;;;;4217698;28;20044;-84
2023/07/14 10:14:49;;;;;;;3.90;2.35;;;23.20;96.20;;;;;;4217065;28;20044;-84
2023/07/14 10:16:51;;;;;;;5.15;1.50;;;23.10;96.50;;;;;;4214940;28;20059;-84
2023/07/14 10:19:03;;;;;;;2.15;1.45;;;23.10;96.80;;;;;;4217307;28;20044;-84
2023/07/14 10:21:06;;;;;;;3.63;1.30;;;23.10;96.40;;;;;;4216974;28;20047;-84
2023/07/14 10:23:16;;;;;;;3.08;1.40;;;23.00;96.80;;;;;;4217677;28;20044;-83
2023/07/14 10:25:19;;;;;;;4.00;1.60;;;23.20;96.40;;;;;;4217510;28;20076;-84
2023/07/14 10:27:25;;;;;;;2.03;1.40;;;23.40;96.80;;;;;;4216701;28;20131;-84
2023/07/14 10:29:44;;;;;;;5.13;1.70;;;23.70;96.40;;;;;;4217487;28;20438;-84
2023/07/14 10:32:11;;;;;;;8.10;1.90;;;24.00;96.10;;;;;;4217641;28;20055;-85
2023/07/14 10:34:34;;;;;;;5.25;1.85;;;24.20;94.20;;;;;;4218155;28;20047;-84
2023/07/14 10:36:38;;;;;;;2.67;1.48;;;24.30;95.80;;;;;;4218602;28;20123;-84
2023/07/14 10:38:59;;;;;;;4.63;1.90;;;24.30;95.20;;;;;;4216934;28;20123;-85
2023/07/14 10:41:05;;;;;;;4.65;1.60;;;24.40;95.00;;;;;;4217078;28;20557;-84